Time;durP1;ratioP1;P1;durP2;ratioP2;P2;SDS_P1;SDS_P2;PMS_P1;PMS_P2;Temp;Humidity;BMP_temperature;BMP_pressure;BME280_temperature;BME280_humidity;BME280_pressure;Samples;Min_cycle;Max_cycle;Signal;HPM_P1;HPM_P2
2021/11/26 00:00:55;;;;;;;3.72;2.90;;;;;;;;;;5114170;28;20358;-45
2021/11/26 00:03:21;;;;;;;3.22;2.92;;;;;;;;;;5113336;28;20283;-45
2021/11/26 00:05:47;;;;;;;3.42;3.13;;;;;;;;;;5123314;28;20192;-45
2021/11/26 00:08:12;;;;;;;2.95;2.72;;;;;;;;;;5121278;28;20204;-45
2021/11/26 00:10:39;;;;;;;2.80;2.60;;;;;;;;;;5111848;28;20255;-45
2021/11/26 00:13:06;;;;;;;3.10;2.80;;;;;;;;;;5127667;28;20563;-45
2021/11/26 00:18:04;;;;;;;4.20;3.00;;;;;;;;;;5116143;28;20223;-44
2021/11/26 00:20:31;;;;;;;3.03;2.70;;;;;;;;;;5120151;28;20568;-45
2021/11/26 00:22:57;;;;;;;3.05;2.40;;;;;;;;;;5120242;28;20181;-45
2021/11/26 00:25:23;;;;;;;3.10;2.80;;;;;;;;;;5129503;27;20192;-45
2021/11/26 00:27:51;;;;;;;3.40;2.47;;;;;;;;;;5125311;27;20209;-45
2021/11/26 00:30:17;;;;;;;3.25;2.90;;;;;;;;;;5131464;27;20480;-44
2021/11/26 00:32:43;;;;;;;3.17;2.88;;;;;;;;;;5122473;27;20184;-45
2021/11/26 00:35:09;;;;;;;3.35;2.65;;;;;;;;;;5125728;27;20220;-45
2021/11/26 00:37:35;;;;;;;2.70;2.50;;;;;;;;;;5117970;27;20441;-45
2021/11/26 00:40:01;;;;;;;3.25;2.95;;;;;;;;;;5119043;27;20587;-45
2021/11/26 00:42:27;;;;;;;3.83;2.80;;;;;;;;;;5114320;27;20187;-45
2021/11/26 00:44:53;;;;;;;3.25;2.80;;;;;;;;;;5121680;27;20455;-45
2021/11/26 00:47:20;;;;;;;2.90;2.60;;;;;;;;;;5127675;27;20197;-45
2021/11/26 00:49:47;;;;;;;2.92;2.70;;;;;;;;;;5134995;27;20173;-44
2021/11/26 00:52:13;;;;;;;2.83;2.58;;;;;;;;;;5126992;27;20295;-44
2021/11/26 00:54:39;;;;;;;3.28;2.97;;;;;;;;;;5122550;27;20177;-44
2021/11/26 00:57:07;;;;;;;2.80;2.50;;;;;;;;;;5125180;27;20193;-45
2021/11/26 00:59:33;;;;;;;2.85;2.55;;;;;;;;;;5120771;27;20272;-45
2021/11/26 01:01:59;;;;;;;2.95;2.65;;;;;;;;;;5126756;27;20224;-45
2021/11/26 01:04:25;;;;;;;2.58;2.38;;;;;;;;;;5124415;27;20633;-45
2021/11/26 01:06:51;;;;;;;3.78;2.53;;;;;;;;;;5123950;27;20181;-45
2021/11/26 01:09:18;;;;;;;3.42;2.80;;;;;;;;;;5117333;27;20234;-45
2021/11/26 01:11:44;;;;;;;2.92;2.70;;;;;;;;;;5127266;27;20172;-45
2021/11/26 01:14:10;;;;;;;2.67;2.47;;;;;;;;;;5119860;27;20217;-45
2021/11/26 01:16:36;;;;;;;2.63;2.42;;;;;;;;;;5124511;27;20192;-45
2021/11/26 01:19:03;;;;;;;2.67;2.42;;;;;;;;;;5126673;27;20176;-45
2021/11/26 01:21:29;;;;;;;2.97;2.50;;;;;;;;;;5118185;27;20188;-45
2021/11/26 01:23:55;;;;;;;3.50;2.47;;;;;;;;;;5120106;27;20191;-45
2021/11/26 01:26:21;;;;;;;3.05;2.75;;;;;;;;;;5126791;27;20208;-45
2021/11/26 01:28:49;;;;;;;2.70;2.50;;;;;;;;;;5122239;27;20205;-45
2021/11/26 01:31:15;;;;;;;2.97;2.40;;;;;;;;;;5126485;27;20190;-45
2021/11/26 01:33:41;;;;;;;2.63;2.42;;;;;;;;;;5125220;27;20177;-45
2021/11/26 01:36:07;;;;;;;2.65;2.45;;;;;;;;;;5123081;27;20586;-45
2021/11/26 01:38:33;;;;;;;2.85;2.60;;;;;;;;;;5127112;27;20629;-45
2021/11/26 01:41:00;;;;;;;2.95;2.45;;;;;;;;;;5123298;27;20272;-45
2021/11/26 01:43:26;;;;;;;2.45;2.25;;;;;;;;;;5124698;27;20181;-45
2021/11/26 01:45:56;;;;;;;2.97;2.25;;;;;;;;;;5127167;27;20186;-45
2021/11/26 01:48:23;;;;;;;2.63;2.42;;;;;;;;;;5128410;27;20204;-45
2021/11/26 01:50:50;;;;;;;2.40;2.20;;;;;;;;;;5119003;27;20561;-45
2021/11/26 01:53:16;;;;;;;2.72;2.45;;;;;;;;;;5109942;27;20177;-45
2021/11/26 01:55:42;;;;;;;2.63;2.42;;;;;;;;;;5126761;27;20172;-45
2021/11/26 01:58:10;;;;;;;2.67;2.40;;;;;;;;;;5119125;27;20180;-44
2021/11/26 02:00:37;;;;;;;2.70;2.50;;;;;;;;;;5105526;27;20200;-44
2021/11/26 02:03:03;;;;;;;2.42;2.22;;;;;;;;;;5108286;27;20802;-44
2021/11/26 02:05:29;;;;;;;2.15;1.95;;;;;;;;;;5121913;27;20200;-44
2021/11/26 02:07:55;;;;;;;2.92;2.40;;;;;;;;;;5121029;27;20245;-44
2021/11/26 02:10:21;;;;;;;2.45;2.25;;;;;;;;;;5127351;27;20244;-44
2021/11/26 02:12:47;;;;;;;3.28;2.58;;;;;;;;;;5112010;27;20261;-44
2021/11/26 02:15:18;;;;;;;2.60;2.40;;;;;;;;;;5124686;27;20615;-44
2021/11/26 02:17:44;;;;;;;3.10;2.30;;;;;;;;;;5120172;27;20563;-44
2021/11/26 02:20:14;;;;;;;2.40;2.20;;;;;;;;;;5116244;27;20180;-44
2021/11/26 02:22:40;;;;;;;4.88;2.50;;;;;;;;;;5115405;27;20174;-44
2021/11/26 02:25:07;;;;;;;4.57;2.22;;;;;;;;;;5119058;27;20251;-44
2021/11/26 02:27:35;;;;;;;3.75;2.60;;;;;;;;;;5124024;27;20231;-44
2021/11/26 02:30:05;;;;;;;4.30;2.40;;;;;;;;;;5117479;27;20180;-44
2021/11/26 02:32:31;;;;;;;3.00;2.10;;;;;;;;;;5115819;27;20176;-44
2021/11/26 02:34:57;;;;;;;4.35;2.30;;;;;;;;;;5117063;27;20446;-44
2021/11/26 02:37:23;;;;;;;5.80;2.15;;;;;;;;;;5122835;27;20260;-44
2021/11/26 02:39:49;;;;;;;2.22;1.98;;;;;;;;;;5118435;27;20252;-45
2021/11/26 02:42:27;;;;;;;3.10;2.42;;;;;;;;;;5124623;27;20181;-44
2021/11/26 02:44:53;;;;;;;2.50;2.15;;;;;;;;;;5125373;27;20180;-44
2021/11/26 02:47:19;;;;;;;3.22;2.30;;;;;;;;;;5115198;27;20626;-44
2021/11/26 02:49:45;;;;;;;3.00;2.20;;;;;;;;;;5114844;27;20269;-44
2021/11/26 02:52:12;;;;;;;4.35;2.47;;;;;;;;;;5120781;27;20211;-44
2021/11/26 02:54:38;;;;;;;2.92;2.40;;;;;;;;;;5125042;27;20177;-44
2021/11/26 02:57:04;;;;;;;2.92;2.33;;;;;;;;;;5121261;27;20219;-44
2021/11/26 02:59:29;;;;;;;5.95;1.92;;;;;;;;;;5124046;27;20185;-44
2021/11/26 03:01:55;;;;;;;2.45;2.17;;;;;;;;;;5121368;27;20279;-44
2021/11/26 03:04:21;;;;;;;2.17;1.95;;;;;;;;;;5123568;27;20210;-44
2021/11/26 03:06:47;;;;;;;2.90;2.25;;;;;;;;;;5120839;27;20230;-44
2021/11/26 03:09:13;;;;;;;2.30;2.10;;;;;;;;;;5126633;27;20193;-44
2021/11/26 03:11:39;;;;;;;2.55;2.00;;;;;;;;;;5118582;27;20173;-44
2021/11/26 03:14:05;;;;;;;2.17;1.98;;;;;;;;;;5118819;27;20295;-45
2021/11/26 03:16:31;;;;;;;4.43;2.28;;;;;;;;;;5125983;27;20173;-45
2021/11/26 03:18:58;;;;;;;2.30;2.10;;;;;;;;;;5129745;27;20189;-45
2021/11/26 03:21:24;;;;;;;3.15;2.10;;;;;;;;;;5113075;28;20180;-45
2021/11/26 03:23:50;;;;;;;3.80;2.47;;;;;;;;;;5109629;28;20571;-44
2021/11/26 03:26:16;;;;;;;2.25;2.05;;;;;;;;;;5115434;27;20192;-44
2021/11/26 03:28:42;;;;;;;2.35;2.15;;;;;;;;;;5121111;27;20305;-44
2021/11/26 03:31:08;;;;;;;2.28;2.08;;;;;;;;;;5123387;27;20213;-44
2021/11/26 03:33:34;;;;;;;2.53;2.33;;;;;;;;;;5104943;27;20184;-45
2021/11/26 03:36:00;;;;;;;2.30;2.10;;;;;;;;;;5122551;27;20188;-45
2021/11/26 03:38:26;;;;;;;4.35;2.20;;;;;;;;;;5105627;27;20184;-44
2021/11/26 03:40:52;;;;;;;2.33;2.03;;;;;;;;;;5117288;27;20532;-44
2021/11/26 03:43:19;;;;;;;2.30;2.10;;;;;;;;;;5115002;27;20181;-44
2021/11/26 03:45:45;;;;;;;2.80;2.30;;;;;;;;;;5119241;27;20184;-44
2021/11/26 03:48:11;;;;;;;2.30;2.10;;;;;;;;;;5126125;27;20517;-44
2021/11/26 03:50:37;;;;;;;2.30;2.10;;;;;;;;;;5118245;28;20173;-44
2021/11/26 03:53:03;;;;;;;4.10;2.00;;;;;;;;;;5126335;28;20420;-44
2021/11/26 03:55:29;;;;;;;2.58;1.90;;;;;;;;;;5105814;28;20463;-44
2021/11/26 03:57:56;;;;;;;1.88;1.77;;;;;;;;;;5114179;27;20685;-44
2021/11/26 04:00:22;;;;;;;3.10;2.25;;;;;;;;;;5125848;27;20184;-44
2021/11/26 04:02:48;;;;;;;3.38;1.95;;;;;;;;;;5128559;27;20226;-44
2021/11/26 04:05:15;;;;;;;2.55;2.35;;;;;;;;;;5120587;27;20191;-44
2021/11/26 04:07:41;;;;;;;1.95;1.80;;;;;;;;;;5126771;27;20196;-44
2021/11/26 04:10:08;;;;;;;1.85;1.75;;;;;;;;;;5126454;27;20711;-44
2021/11/26 04:12:34;;;;;;;2.00;1.90;;;;;;;;;;5111989;27;20177;-44
2021/11/26 04:15:00;;;;;;;2.10;2.00;;;;;;;;;;5090836;28;20199;-44
2021/11/26 04:17:26;;;;;;;3.80;1.90;;;;;;;;;;5125030;27;20259;-44
2021/11/26 04:19:53;;;;;;;1.90;1.80;;;;;;;;;;5123316;27;20183;-44
2021/11/26 04:22:19;;;;;;;1.70;1.60;;;;;;;;;;5118897;27;20178;-44
2021/11/26 04:24:45;;;;;;;2.33;1.85;;;;;;;;;;5108359;27;20173;-45
2021/11/26 04:27:11;;;;;;;3.38;1.77;;;;;;;;;;5127482;27;20218;-45
2021/11/26 04:29:37;;;;;;;1.90;1.80;;;;;;;;;;5122079;27;20169;-44
2021/11/26 04:32:03;;;;;;;2.28;2.00;;;;;;;;;;5127167;27;20330;-44
2021/11/26 04:34:29;;;;;;;2.58;1.90;;;;;;;;;;5112205;27;20176;-44
2021/11/26 04:36:55;;;;;;;2.58;2.10;;;;;;;;;;5128516;27;20181;-45
2021/11/26 04:39:21;;;;;;;2.40;2.20;;;;;;;;;;5118241;27;20266;-45
2021/11/26 04:41:47;;;;;;;1.95;1.80;;;;;;;;;;5129785;27;20168;-45
2021/11/26 04:44:13;;;;;;;1.98;1.77;;;;;;;;;;5128955;27;20188;-45
2021/11/26 04:46:39;;;;;;;2.20;2.00;;;;;;;;;;5128775;27;20492;-45
2021/11/26 04:49:05;;;;;;;2.00;1.90;;;;;;;;;;5113436;27;20236;-45
2021/11/26 04:51:32;;;;;;;2.40;1.88;;;;;;;;;;5121966;27;20188;-45
2021/11/26 04:53:58;;;;;;;2.47;1.80;;;;;;;;;;5118851;27;20169;-45
2021/11/26 04:56:24;;;;;;;1.95;1.70;;;;;;;;;;5128579;27;20450;-45
2021/11/26 04:58:50;;;;;;;3.28;1.75;;;;;;;;;;5125202;27;20181;-45
2021/11/26 05:01:16;;;;;;;1.80;1.70;;;;;;;;;;5123393;27;20193;-45
2021/11/26 05:03:42;;;;;;;2.25;1.77;;;;;;;;;;5118387;27;20225;-45
2021/11/26 05:06:08;;;;;;;1.80;1.70;;;;;;;;;;5118204;27;20887;-44
2021/11/26 05:08:34;;;;;;;4.15;2.10;;;;;;;;;;5117488;27;20192;-44
2021/11/26 05:11:00;;;;;;;3.72;2.13;;;;;;;;;;5115089;27;20527;-46
2021/11/26 05:13:29;;;;;;;5.13;2.03;;;;;;;;;;5133364;27;20255;-45
2021/11/26 05:15:55;;;;;;;2.67;1.73;;;;;;;;;;5125961;27;20543;-44
2021/11/26 05:18:26;;;;;;;2.63;2.08;;;;;;;;;;5128836;27;20185;-44
2021/11/26 05:20:52;;;;;;;3.78;1.92;;;;;;;;;;5131309;27;20179;-45
2021/11/26 05:23:19;;;;;;;2.00;1.80;;;;;;;;;;5127602;27;20180;-44
2021/11/26 05:25:45;;;;;;;6.38;1.95;;;;;;;;;;5122756;27;20607;-44
2021/11/26 05:28:11;;;;;;;13.75;4.43;;;;;;;;;;5118997;27;20213;-44
2021/11/26 05:30:37;;;;;;;27.52;6.70;;;;;;;;;;5117385;27;20582;-44
2021/11/26 05:33:03;;;;;;;20.75;6.18;;;;;;;;;;5130427;27;20283;-44
2021/11/26 05:35:31;;;;;;;16.83;6.00;;;;;;;;;;5117273;27;20196;-44
2021/11/26 05:37:57;;;;;;;15.52;5.30;;;;;;;;;;5123776;27;20420;-44
2021/11/26 05:40:23;;;;;;;14.30;4.20;;;;;;;;;;5123761;27;20194;-44
2021/11/26 05:42:49;;;;;;;15.05;4.53;;;;;;;;;;5128069;27;20455;-44
2021/11/26 05:45:16;;;;;;;16.67;5.43;;;;;;;;;;5126161;27;20195;-44
2021/11/26 05:47:42;;;;;;;10.18;4.55;;;;;;;;;;5109609;27;20204;-44
2021/11/26 05:50:10;;;;;;;16.55;4.95;;;;;;;;;;5125749;27;20172;-44
2021/11/26 05:52:37;;;;;;;12.93;4.15;;;;;;;;;;5120772;27;20173;-44
2021/11/26 05:55:04;;;;;;;11.25;4.35;;;;;;;;;;5122269;27;20257;-44
2021/11/26 05:57:30;;;;;;;12.18;3.92;;;;;;;;;;5131185;27;20602;-44
2021/11/26 05:59:56;;;;;;;9.50;3.95;;;;;;;;;;5121354;27;20267;-44
2021/11/26 06:02:22;;;;;;;10.07;3.53;;;;;;;;;;5123121;27;20575;-44
2021/11/26 06:04:48;;;;;;;11.70;4.00;;;;;;;;;;5121410;27;20215;-44
2021/11/26 06:07:14;;;;;;;9.73;3.92;;;;;;;;;;5123956;27;20215;-44
2021/11/26 06:09:41;;;;;;;11.32;3.97;;;;;;;;;;5117276;27;20184;-44
2021/11/26 06:12:09;;;;;;;10.27;3.83;;;;;;;;;;5127517;27;20213;-44
2021/11/26 06:14:35;;;;;;;8.27;3.63;;;;;;;;;;5123123;27;20176;-44
2021/11/26 06:17:01;;;;;;;10.15;3.88;;;;;;;;;;5126590;27;20267;-45
2021/11/26 06:19:27;;;;;;;10.45;3.72;;;;;;;;;;5118260;27;20437;-45
2021/11/26 06:21:53;;;;;;;8.88;4.03;;;;;;;;;;5123449;27;20176;-45
2021/11/26 06:24:19;;;;;;;9.55;3.33;;;;;;;;;;5122331;27;20223;-45
2021/11/26 06:26:45;;;;;;;6.38;3.70;;;;;;;;;;5128527;27;20173;-45
2021/11/26 06:29:14;;;;;;;8.30;3.13;;;;;;;;;;5113702;27;20205;-44
2021/11/26 06:31:41;;;;;;;7.25;3.60;;;;;;;;;;5121588;27;20178;-44
2021/11/26 06:34:07;;;;;;;7.25;3.15;;;;;;;;;;5120633;27;20188;-44
2021/11/26 06:36:33;;;;;;;6.70;3.10;;;;;;;;;;5127165;27;20168;-44
2021/11/26 06:39:00;;;;;;;4.10;2.90;;;;;;;;;;5125701;27;20463;-44
2021/11/26 06:41:26;;;;;;;6.32;3.08;;;;;;;;;;5122709;27;20200;-44
2021/11/26 06:43:52;;;;;;;5.57;3.00;;;;;;;;;;5121265;27;20178;-44
2021/11/26 06:46:18;;;;;;;5.07;2.72;;;;;;;;;;5118214;27;20190;-44
2021/11/26 06:48:44;;;;;;;5.82;3.28;;;;;;;;;;5135704;27;20215;-44
2021/11/26 06:51:10;;;;;;;7.57;3.13;;;;;;;;;;5134036;27;20169;-44
2021/11/26 06:53:36;;;;;;;6.82;3.00;;;;;;;;;;5134830;27;20183;-44
2021/11/26 06:56:03;;;;;;;6.40;3.05;;;;;;;;;;5117485;27;20177;-44
2021/11/26 06:58:29;;;;;;;10.23;3.35;;;;;;;;;;5115503;28;20259;-44
2021/11/26 07:00:55;;;;;;;4.82;2.90;;;;;;;;;;5081444;28;20217;-44
2021/11/26 07:03:21;;;;;;;4.55;3.03;;;;;;;;;;5094314;28;20292;-44
2021/11/26 07:05:48;;;;;;;6.78;3.05;;;;;;;;;;5109989;27;20543;-44
2021/11/26 07:08:14;;;;;;;6.90;3.05;;;;;;;;;;5111242;27;20288;-44
2021/11/26 07:10:41;;;;;;;5.70;2.55;;;;;;;;;;5115921;27;20224;-45
2021/11/26 07:13:07;;;;;;;6.55;2.78;;;;;;;;;;5112804;27;20656;-44
2021/11/26 07:15:33;;;;;;;4.25;2.50;;;;;;;;;;5113737;27;20196;-45
2021/11/26 07:17:59;;;;;;;6.05;2.70;;;;;;;;;;5129193;27;20475;-45
2021/11/26 07:20:25;;;;;;;5.47;2.50;;;;;;;;;;5134072;27;20686;-44
2021/11/26 07:22:51;;;;;;;5.45;3.28;;;;;;;;;;5132554;27;20182;-45
2021/11/26 07:25:17;;;;;;;5.72;2.65;;;;;;;;;;5112628;28;20578;-45
2021/11/26 07:27:43;;;;;;;4.72;2.95;;;;;;;;;;5113135;28;20240;-45
2021/11/26 07:30:10;;;;;;;4.93;2.95;;;;;;;;;;5113511;28;20256;-45
2021/11/26 07:32:37;;;;;;;6.00;3.13;;;;;;;;;;5114586;28;20162;-45
2021/11/26 07:35:03;;;;;;;4.72;2.60;;;;;;;;;;5114157;28;20696;-44
2021/11/26 07:37:29;;;;;;;4.72;2.50;;;;;;;;;;5111960;28;20268;-44
2021/11/26 07:39:55;;;;;;;5.40;2.60;;;;;;;;;;5109547;28;20513;-44
2021/11/26 07:42:21;;;;;;;4.97;2.45;;;;;;;;;;5114542;28;20503;-44
2021/11/26 07:44:47;;;;;;;4.90;2.60;;;;;;;;;;5113567;27;20263;-44
2021/11/26 07:47:16;;;;;;;3.97;2.20;;;;;;;;;;5114922;27;20260;-44
2021/11/26 07:49:42;;;;;;;5.65;2.63;;;;;;;;;;5125433;27;20192;-44
2021/11/26 07:52:10;;;;;;;4.40;2.28;;;;;;;;;;5120280;27;20183;-44
2021/11/26 07:54:36;;;;;;;3.28;2.33;;;;;;;;;;5106692;28;20176;-44
2021/11/26 07:57:02;;;;;;;5.55;2.63;;;;;;;;;;5118895;28;20185;-44
2021/11/26 07:59:28;;;;;;;5.68;2.50;;;;;;;;;;5120779;28;20271;-44
2021/11/26 08:01:55;;;;;;;3.53;2.22;;;;;;;;;;5121032;28;20177;-45
2021/11/26 08:04:21;;;;;;;4.70;2.28;;;;;;;;;;5122893;28;20617;-45
2021/11/26 08:06:47;;;;;;;4.43;2.35;;;;;;;;;;5121358;28;20208;-44
2021/11/26 08:09:14;;;;;;;3.17;1.90;;;;;;;;;;5123567;28;20225;-44
2021/11/26 08:11:41;;;;;;;2.97;2.03;;;;;;;;;;5120200;28;20191;-44
2021/11/26 08:14:07;;;;;;;2.78;2.17;;;;;;;;;;5117111;28;20175;-44
2021/11/26 08:16:34;;;;;;;2.90;2.03;;;;;;;;;;5114122;28;20173;-44
2021/11/26 08:19:00;;;;;;;4.70;2.47;;;;;;;;;;5114362;28;20197;-44
2021/11/26 08:21:26;;;;;;;2.90;1.90;;;;;;;;;;5113261;28;20207;-44
2021/11/26 08:23:52;;;;;;;3.75;2.17;;;;;;;;;;5113104;28;20181;-44
2021/11/26 08:26:18;;;;;;;3.92;2.25;;;;;;;;;;5113971;28;20169;-44
2021/11/26 08:28:44;;;;;;;3.78;2.35;;;;;;;;;;5113979;28;20200;-44
2021/11/26 08:31:10;;;;;;;2.90;2.38;;;;;;;;;;5114287;28;20165;-44
2021/11/26 08:33:36;;;;;;;4.68;2.10;;;;;;;;;;5113485;28;20174;-44
2021/11/26 08:36:02;;;;;;;3.83;2.15;;;;;;;;;;5114034;28;20555;-44
2021/11/26 08:38:28;;;;;;;2.80;1.98;;;;;;;;;;5108944;28;20174;-44
2021/11/26 08:40:54;;;;;;;2.95;2.13;;;;;;;;;;5093438;28;20178;-44
2021/11/26 08:43:20;;;;;;;2.50;1.80;;;;;;;;;;5110304;28;20181;-44
2021/11/26 08:45:47;;;;;;;3.45;2.17;;;;;;;;;;5106622;27;20180;-44
2021/11/26 08:48:13;;;;;;;3.42;2.22;;;;;;;;;;5115635;27;20209;-44
2021/11/26 08:50:39;;;;;;;3.95;2.50;;;;;;;;;;5116239;27;20602;-44
2021/11/26 08:53:06;;;;;;;2.13;1.80;;;;;;;;;;5128205;27;20177;-45
2021/11/26 08:55:33;;;;;;;2.92;1.83;;;;;;;;;;5123719;27;20173;-45
2021/11/26 08:58:00;;;;;;;4.60;2.17;;;;;;;;;;5124592;27;20212;-45
2021/11/26 09:00:27;;;;;;;2.60;2.13;;;;;;;;;;5127760;27;20384;-44
2021/11/26 09:02:54;;;;;;;3.25;2.10;;;;;;;;;;5126698;27;20220;-44
2021/11/26 09:05:20;;;;;;;2.38;1.90;;;;;;;;;;5123743;27;20181;-44
2021/11/26 09:07:47;;;;;;;2.53;1.80;;;;;;;;;;5128808;27;20466;-44
2021/11/26 09:10:15;;;;;;;2.50;1.80;;;;;;;;;;5115250;27;20480;-44
2021/11/26 09:12:41;;;;;;;2.92;1.98;;;;;;;;;;5128310;27;20184;-44
2021/11/26 09:15:07;;;;;;;2.78;1.73;;;;;;;;;;5123057;27;20242;-44
2021/11/26 09:17:33;;;;;;;4.38;1.90;;;;;;;;;;5128982;27;20168;-44
2021/11/26 09:19:59;;;;;;;2.95;1.85;;;;;;;;;;5120745;27;20518;-44
2021/11/26 09:22:26;;;;;;;2.28;1.83;;;;;;;;;;5126778;27;20230;-44
2021/11/26 09:24:53;;;;;;;3.25;1.65;;;;;;;;;;5125737;27;20169;-44
2021/11/26 09:27:20;;;;;;;2.83;1.90;;;;;;;;;;5124953;27;20173;-44
2021/11/26 09:29:47;;;;;;;2.83;1.85;;;;;;;;;;5134887;27;20173;-45
2021/11/26 09:32:13;;;;;;;2.70;1.98;;;;;;;;;;5125024;27;20214;-44
2021/11/26 09:34:39;;;;;;;1.75;1.60;;;;;;;;;;5117413;27;20173;-44
2021/11/26 09:37:05;;;;;;;2.83;1.80;;;;;;;;;;5116914;27;20196;-45
2021/11/26 09:39:31;;;;;;;1.50;1.40;;;;;;;;;;5135884;27;20173;-44
2021/11/26 09:41:57;;;;;;;2.15;1.70;;;;;;;;;;5137378;27;20201;-44
2021/11/26 09:44:24;;;;;;;2.15;1.70;;;;;;;;;;5136737;27;20169;-44
2021/11/26 09:46:57;;;;;;;2.38;1.60;;;;;;;;;;5137206;27;20203;-45
2021/11/26 09:49:23;;;;;;;3.55;1.55;;;;;;;;;;5126221;27;20208;-44
2021/11/26 09:51:49;;;;;;;2.58;1.73;;;;;;;;;;5116292;28;20172;-45
2021/11/26 09:54:15;;;;;;;3.28;1.80;;;;;;;;;;5115913;28;20189;-44
2021/11/26 09:56:42;;;;;;;3.08;1.83;;;;;;;;;;5115352;28;20218;-45
2021/11/26 09:59:08;;;;;;;1.70;1.45;;;;;;;;;;5116564;28;20197;-45
2021/11/26 10:01:34;;;;;;;2.45;1.65;;;;;;;;;;5116222;28;20188;-45
2021/11/26 10:04:00;;;;;;;1.65;1.55;;;;;;;;;;5106727;28;20598;-45
2021/11/26 10:06:36;;;;;;;1.77;1.60;;;;;;;;;;5106276;28;20181;-44
2021/11/26 10:09:11;;;;;;;2.33;1.80;;;;;;;;;;5116325;28;20212;-44
2021/11/26 10:11:49;;;;;;;2.13;1.80;;;;;;;;;;5116064;28;20164;-44
2021/11/26 10:14:16;;;;;;;3.25;1.80;;;;;;;;;;5115601;28;20158;-45
2021/11/26 10:16:46;;;;;;;2.17;1.70;;;;;;;;;;5115935;28;20161;-45
2021/11/26 10:19:12;;;;;;;1.65;1.50;;;;;;;;;;5115194;28;20181;-45
2021/11/26 10:21:39;;;;;;;1.98;1.70;;;;;;;;;;5115941;28;20170;-45
2021/11/26 10:24:13;;;;;;;3.17;1.80;;;;;;;;;;5097677;28;20533;-45
2021/11/26 10:26:39;;;;;;;1.60;1.50;;;;;;;;;;5110160;28;20168;-44
2021/11/26 10:29:05;;;;;;;1.77;1.63;;;;;;;;;;5109301;27;20628;-44
2021/11/26 10:31:36;;;;;;;2.35;1.73;;;;;;;;;;5119270;27;20477;-44
2021/11/26 10:34:04;;;;;;;1.77;1.50;;;;;;;;;;5123559;27;20439;-44
2021/11/26 10:36:41;;;;;;;1.63;1.52;;;;;;;;;;5118422;27;20192;-44
2021/11/26 10:39:16;;;;;;;2.20;1.65;;;;;;;;;;5121935;27;20180;-44
2021/11/26 10:41:44;;;;;;;1.45;1.35;;;;;;;;;;5120943;27;20176;-44
2021/11/26 10:44:12;;;;;;;1.70;1.60;;;;;;;;;;5132101;27;20183;-44
2021/11/26 11:00:13;;;;;;;3.67;1.23;;;;;;;;;;5096363;27;20193;-45
2021/11/26 11:02:41;;;;;;;3.95;1.45;;;;;;;;;;5105414;27;20188;-45
2021/11/26 11:05:09;;;;;;;6.55;1.55;;;;;;;;;;5115767;27;20193;-45
2021/11/26 11:07:39;;;;;;;3.17;1.67;;;;;;;;;;5106469;27;20290;-44
2021/11/26 11:10:06;;;;;;;5.15;1.70;;;;;;;;;;5116443;27;20185;-44
2021/11/26 11:12:34;;;;;;;4.30;1.67;;;;;;;;;;5121608;27;20217;-44
2021/11/26 11:15:01;;;;;;;5.75;1.70;;;;;;;;;;5105769;28;20201;-44
2021/11/26 11:17:28;;;;;;;2.10;1.60;;;;;;;;;;5117471;27;20188;-44
2021/11/26 11:20:00;;;;;;;6.20;1.70;;;;;;;;;;5108518;27;20209;-44
2021/11/26 11:22:27;;;;;;;2.85;1.55;;;;;;;;;;5123434;27;20425;-44
2021/11/26 11:24:53;;;;;;;2.75;1.40;;;;;;;;;;5125148;27;20188;-44
2021/11/26 11:27:20;;;;;;;3.35;1.70;;;;;;;;;;5119432;27;20450;-44
2021/11/26 11:29:46;;;;;;;4.45;1.58;;;;;;;;;;5109323;28;20176;-44
2021/11/26 11:32:12;;;;;;;4.82;1.65;;;;;;;;;;5116135;27;20244;-44
2021/11/26 11:34:38;;;;;;;5.28;1.70;;;;;;;;;;5119940;27;20450;-44
2021/11/26 11:37:07;;;;;;;4.25;1.58;;;;;;;;;;5123996;27;20292;-44
2021/11/26 11:39:44;;;;;;;3.28;1.70;;;;;;;;;;5102932;27;20173;-44
2021/11/26 11:42:10;;;;;;;2.53;1.40;;;;;;;;;;5113453;27;20181;-45
2021/11/26 11:44:37;;;;;;;3.78;1.50;;;;;;;;;;5125250;27;20229;-45
2021/11/26 11:47:21;;;;;;;3.80;1.40;;;;;;;;;;5114293;27;20188;-45
2021/11/26 11:49:47;;;;;;;3.28;1.58;;;;;;;;;;5103970;27;20236;-45
2021/11/26 11:52:15;;;;;;;2.67;1.40;;;;;;;;;;5120204;28;20177;-45
2021/11/26 11:54:45;;;;;;;1.85;1.20;;;;;;;;;;5124179;27;20175;-45
2021/11/26 11:57:22;;;;;;;3.53;1.85;;;;;;;;;;5123941;27;20176;-45
2021/11/26 11:59:50;;;;;;;2.58;1.65;;;;;;;;;;5119072;28;20176;-45
2021/11/26 12:02:22;;;;;;;2.55;1.60;;;;;;;;;;5119008;28;20288;-44
2021/11/26 12:04:49;;;;;;;5.05;1.75;;;;;;;;;;5117169;28;20180;-45
2021/11/26 12:07:26;;;;;;;5.95;1.70;;;;;;;;;;5123365;28;20267;-45
2021/11/26 12:10:09;;;;;;;4.20;1.52;;;;;;;;;;5116566;28;20182;-45
2021/11/26 12:12:51;;;;;;;2.35;1.58;;;;;;;;;;5121982;28;20218;-44
2021/11/26 12:15:33;;;;;;;1.88;1.75;;;;;;;;;;5124844;28;20183;-45
2021/11/26 12:18:01;;;;;;;1.98;1.77;;;;;;;;;;5118735;28;20173;-44
2021/11/26 12:20:28;;;;;;;2.72;2.13;;;;;;;;;;5114963;27;20459;-45
2021/11/26 12:22:58;;;;;;;2.85;2.10;;;;;;;;;;5121426;27;20181;-45
2021/11/26 12:28:11;;;;;;;4.70;2.08;;;;;;;;;;5124406;27;20196;-45
2021/11/26 12:30:40;;;;;;;2.65;2.00;;;;;;;;;;5117095;27;20177;-45
2021/11/26 12:33:16;;;;;;;5.03;1.83;;;;;;;;;;5131030;27;20175;-45
2021/11/26 12:35:53;;;;;;;12.85;3.90;;;;;;;;;;5097089;28;20188;-45
2021/11/26 12:38:19;;;;;;;24.17;5.65;;;;;;;;;;5099298;28;20235;-45
2021/11/26 12:40:45;;;;;;;28.70;7.38;;;;;;;;;;5108990;28;20843;-45
2021/11/26 12:43:11;;;;;;;33.55;8.07;;;;;;;;;;5117839;28;20733;-45
2021/11/26 12:45:37;;;;;;;25.35;6.43;;;;;;;;;;5100006;28;20187;-45
2021/11/26 12:48:10;;;;;;;27.23;6.55;;;;;;;;;;5114990;27;20478;-45
2021/11/26 12:53:23;;;;;;;31.58;8.38;;;;;;;;;;5127713;27;20198;-45
2021/11/26 12:55:55;;;;;;;25.98;7.57;;;;;;;;;;5124312;27;20188;-45
2021/11/26 12:58:22;;;;;;;23.75;6.93;;;;;;;;;;5123643;27;20181;-45
2021/11/26 13:00:52;;;;;;;22.35;6.68;;;;;;;;;;5119844;27;20443;-45
2021/11/26 13:03:18;;;;;;;27.35;7.53;;;;;;;;;;5123988;27;20196;-45
2021/11/26 13:05:51;;;;;;;28.00;7.28;;;;;;;;;;5119704;27;20195;-45
2021/11/26 13:08:17;;;;;;;26.80;7.88;;;;;;;;;;5125085;27;20246;-45
2021/11/26 13:10:43;;;;;;;23.70;6.55;;;;;;;;;;5121717;27;20277;-45
2021/11/26 13:13:09;;;;;;;24.02;6.50;;;;;;;;;;5119700;27;20177;-44
2021/11/26 13:15:37;;;;;;;18.73;5.93;;;;;;;;;;5104653;27;20793;-44
2021/11/26 13:18:12;;;;;;;20.90;6.88;;;;;;;;;;5103465;27;20192;-44
2021/11/26 13:20:42;;;;;;;25.77;6.95;;;;;;;;;;5109517;27;20185;-45
2021/11/26 13:23:10;;;;;;;26.13;7.55;;;;;;;;;;5112718;27;20553;-44
2021/11/26 13:25:36;;;;;;;20.70;6.30;;;;;;;;;;5116854;27;20241;-44
2021/11/26 13:28:02;;;;;;;21.95;6.25;;;;;;;;;;5123746;27;20262;-44
2021/11/26 13:30:41;;;;;;;20.85;5.75;;;;;;;;;;5113845;27;20192;-45
2021/11/26 13:33:12;;;;;;;16.73;5.88;;;;;;;;;;5109688;27;20169;-44
2021/11/26 13:35:41;;;;;;;24.67;5.75;;;;;;;;;;5110695;27;20679;-46
2021/11/26 13:38:13;;;;;;;22.23;5.20;;;;;;;;;;5120236;27;20310;-46
2021/11/26 13:40:41;;;;;;;12.90;4.63;;;;;;;;;;5105843;27;20215;-46
2021/11/26 13:43:07;;;;;;;14.57;4.90;;;;;;;;;;5124504;27;20560;-46
2021/11/26 13:45:38;;;;;;;13.30;4.53;;;;;;;;;;5127969;27;20181;-46
2021/11/26 13:48:04;;;;;;;12.93;4.20;;;;;;;;;;5125072;27;20221;-46
2021/11/26 13:50:33;;;;;;;14.55;4.28;;;;;;;;;;5117613;27;20181;-46
2021/11/26 13:52:59;;;;;;;14.95;4.13;;;;;;;;;;5121081;27;20235;-46
2021/11/26 13:55:25;;;;;;;11.77;3.78;;;;;;;;;;5121816;27;20186;-46
2021/11/26 13:57:51;;;;;;;8.95;3.38;;;;;;;;;;5126392;27;20794;-46
2021/11/26 14:00:20;;;;;;;11.52;3.33;;;;;;;;;;5128859;27;20180;-46
2021/11/26 14:02:49;;;;;;;15.77;3.67;;;;;;;;;;5115015;27;20191;-46
2021/11/26 14:05:15;;;;;;;8.82;3.22;;;;;;;;;;5112306;27;20315;-45
2021/11/26 14:07:41;;;;;;;8.85;3.30;;;;;;;;;;5120849;27;20295;-45
2021/11/26 14:10:10;;;;;;;10.00;3.35;;;;;;;;;;5123657;27;20310;-45
2021/11/26 14:12:36;;;;;;;9.18;2.63;;;;;;;;;;5114884;27;20236;-46
2021/11/26 14:15:03;;;;;;;10.07;3.10;;;;;;;;;;5121122;27;20192;-46
2021/11/26 14:17:30;;;;;;;8.57;2.75;;;;;;;;;;5127382;27;20172;-46
2021/11/26 14:19:57;;;;;;;10.05;3.50;;;;;;;;;;5127088;27;20436;-46
2021/11/26 14:22:24;;;;;;;7.35;2.78;;;;;;;;;;5127688;27;20261;-46
2021/11/26 14:24:54;;;;;;;7.65;3.25;;;;;;;;;;5120950;27;20176;-46
2021/11/26 14:27:27;;;;;;;6.03;2.70;;;;;;;;;;5125996;27;20239;-45
2021/11/26 14:29:55;;;;;;;8.30;2.88;;;;;;;;;;5123139;27;20168;-45
2021/11/26 14:32:22;;;;;;;11.90;2.55;;;;;;;;;;5121949;27;20242;-45
2021/11/26 14:34:49;;;;;;;6.57;2.67;;;;;;;;;;5129391;27;20492;-45
2021/11/26 14:37:20;;;;;;;6.10;2.47;;;;;;;;;;5126920;27;20445;-45
2021/11/26 14:39:46;;;;;;;4.10;2.55;;;;;;;;;;5122122;27;20177;-45
2021/11/26 14:42:13;;;;;;;4.97;2.72;;;;;;;;;;5123358;27;20191;-45
2021/11/26 14:44:40;;;;;;;8.30;3.13;;;;;;;;;;5128181;27;20182;-45
2021/11/26 14:47:06;;;;;;;4.93;2.40;;;;;;;;;;5121471;27;20173;-45
2021/11/26 14:49:45;;;;;;;7.65;2.50;;;;;;;;;;5113495;27;20196;-45
2021/11/26 14:52:12;;;;;;;6.10;2.30;;;;;;;;;;5119400;27;20181;-45
2021/11/26 14:54:44;;;;;;;4.57;2.47;;;;;;;;;;5117422;27;20180;-46
2021/11/26 14:57:11;;;;;;;6.88;2.28;;;;;;;;;;5113698;27;20237;-46
2021/11/26 14:59:40;;;;;;;6.07;2.60;;;;;;;;;;5119531;27;20176;-46
2021/11/26 15:02:06;;;;;;;5.55;2.08;;;;;;;;;;5124428;27;20188;-46